• Join FlightAware (Why Join?)
  • Login
  • US Flag 
09:50AM EDT


 

Airport Tracker/Info


-or-


 

Live Flight TrackerFlight Track Log ✈ AWE3417 ✈ 16-Apr-2013 ✈ KDCA - KCMH

Flight Track Log - Related Links

Times and Time Zones

All times are in EDT time to prevent confusion due to time zone crossing. See the AWE3417 flight status page for this flight to view local times or setup timezone preferences in your user account.

Time Position Orientation Groundspeed Altitude Reporting Facility
EDT Latitude Longitude Course Direction KTS MPH feet Rate Location/Type
08:14PM 39.0928 -77.2595 322° Northwest  Level FlightAware Approximate
08:14PM 38.7333 -77.0500 195° South 268 308 5,000  Level Potomac TRACON
08:15PM 39.1719 -77.3378 326° Northwest  Level FlightAware Approximate
08:15PM 38.7167 -77.1500 258° West 274 315 6,200  Level Potomac TRACON
08:16PM 39.2576 -77.4113 326° Northwest  Level FlightAware Approximate
08:16PM 38.7333 -77.2333 284° West 282 325 9,900  Level Potomac TRACON
08:17PM 39.3446 -77.4824 328° Northwest  Level FlightAware Approximate
08:17PM 38.8167 -77.2833 335° Northwest 306 352 12,400  Level Potomac TRACON
08:18PM 39.4276 -77.5609 322° Northwest  Level FlightAware Approximate
08:19PM 38.9525 -77.3694 334° Northwest 336 387 17,000  Level Washington Center
08:20PM 39.0306 -77.4300 329° Northwest 331 381 17,000  Level Washington Center
08:21PM 39.1069 -77.4908 328° Northwest 331 381 17,000  Level Washington Center
08:22PM 39.1828 -77.5597 325° Northwest 331 381 17,000 960 Level Washington Center
08:23PM 39.2589 -77.6261 326° Northwest 331 381 19,000 2,100 Climbing Washington Center
08:24PM 39.3392 -77.6928 327° Northwest 331 381 21,200 2,340 Climbing Washington Center
08:25PM 39.4294 -77.7733 325° Northwest 341 392 23,700 2,100 Climbing Washington Center
08:26PM 39.5156 -77.8458 327° Northwest 346 398 25,500 1,500 Climbing Washington Center
08:28PM 39.6131 -78.1094 296° West 360 414 28,700 1,380 Climbing Cleveland Center
08:29PM 39.6511 -78.2400 291° West 377 434 30,100 1,320 Climbing Cleveland Center
08:30PM 39.6892 -78.3683 291° West 387 445 31,400 1,320 Climbing Cleveland Center
08:31PM 39.7272 -78.5019 290° West 387 445 32,800 1,200 Climbing Cleveland Center
08:32PM 39.7544 -78.6361 285° West 382 440 33,800 1,140 Climbing Cleveland Center
08:33PM 39.7733 -78.7706 280° West 382 440 35,100 1,080 Climbing Cleveland Center
08:34PM 39.7878 -78.9000 278° West 376 433 36,000 420 Climbing Cleveland Center
08:35PM 39.8086 -79.0453 281° West 371 427 36,000  Level Cleveland Center
08:36PM 39.8269 -79.1747 280° West 371 427 36,000  Level Cleveland Center
08:37PM 39.8681 -79.2928 294° West 361 415 36,000  Level Cleveland Center
08:38PM 39.9111 -79.4139 295° West 366 421 36,000  Level Cleveland Center
08:39PM 39.9333 -79.5489 282° West 371 427 36,000  Level Cleveland Center
08:40PM 39.9469 -79.6842 278° West 377 434 36,000  Level Cleveland Center
08:41PM 39.9583 -79.8192 276° West 377 434 36,000  Level Cleveland Center
08:42PM 39.9736 -79.9572 278° West 382 440 36,000 480 Level Cleveland Center
08:43PM 39.9889 -80.0900 279° West 382 440 37,000 480 Climbing Cleveland Center
08:44PM 39.9997 -80.2036 277° West 375 432 37,000  Level Cleveland Center
08:45PM 40.0086 -80.3364 275° West 370 426 37,000 -60 Level Cleveland Center
08:46PM 40.0192 -80.4692 276° West 370 426 36,900 -360 Descending Cleveland Center
08:47PM 40.0297 -80.6019 276° West 370 426 36,300 -480 Descending Cleveland Center
08:48PM 40.0378 -80.7350 275° West 370 426 36,000 -840 Descending Cleveland Center
08:49PM 40.0481 -80.8733 276° West 370 426 34,700 -1,380 Descending Cleveland Center
08:50PM 40.0475 -81.0089 270° West 375 432 33,300 -1,500 Descending Cleveland Center
08:51PM 40.0367 -81.1525 264° West 387 445 31,800 -1,620 Descending Cleveland Center
08:51PM 40.0283 -81.2061 259° West 394 453 31,200 -1,680 Descending Indianapolis Center
08:52PM 40.0183 -81.3494 265° West 395 455 29,600 -1,740 Descending Indianapolis Center
08:53PM 40.0103 -81.4961 266° West 400 460 27,700 -1,920 Descending Indianapolis Center
08:54PM 40.0019 -81.6328 265° West 379 436 25,700 -2,100 Descending Indianapolis Center
08:55PM 39.9992 -81.7739 269° West 358 412 23,400 -2,100 Descending Indianapolis Center
08:56PM 40.0244 -81.8983 285° West 354 407 21,400 -1,920 Descending Indianapolis Center
08:57PM 40.0322 -81.9419 283° West 346 398 20,800 -1,980 Descending Indianapolis Center
08:57PM 40.0458 -82.0178 283° West 338 389 19,400 -2,220 Descending Indianapolis Center
08:58PM 40.0542 -82.0667 283° West 330 380 18,600 -1,680 Descending Indianapolis Center
08:58PM 40.0664 -82.1300 284° West 317 365 17,700 -2,220 Descending Indianapolis Center
08:59PM 40.0850 -82.2317 283° West 291 335 14,900 -2,880 Descending Indianapolis Center
09:00PM 40.1025 -82.3300 283° West 279 321 11,900 -2,940 Descending Indianapolis Center
09:01PM 40.1094 -82.3611 286° West 279 321 11,200 -1,920 Descending Indianapolis Center
09:01PM 40.1219 -82.4303 283° West 281 323 10,000 -1,200 Descending Indianapolis Center
09:02PM 40.1119 -82.4539 241° Southwest 270 311 10,000 -1,680 Level Indianapolis Center
09:02PM 40.0661 -82.4853 208° Southwest 261 300 8,300 -2,640 Descending Indianapolis Center
09:04PM 40.0050 -82.5567 222° Southwest 248 285 5,000 -2,280 Descending Indianapolis Center
09:05PM 39.9844 -82.6211 247° West 242 278 3,700 -1,020 Descending Indianapolis Center
09:05PM 39.9897 -82.6939 275° West 198 228 3,200 -540 Descending Indianapolis Center